createdAt,value
2022-12-23T05:03:19.284Z,10.50
2022-12-23T05:05:51.093Z,10.50
2022-12-23T05:08:22.750Z,10.60
2022-12-23T05:10:54.538Z,10.50
2022-12-23T05:13:26.385Z,10.50
2022-12-23T05:15:58.102Z,10.50
2022-12-23T05:18:31.149Z,10.50
2022-12-23T05:21:02.866Z,10.50
2022-12-23T05:23:34.528Z,10.60
2022-12-23T05:26:06.209Z,10.50
2022-12-23T05:28:37.883Z,10.60
2022-12-23T05:31:10.426Z,10.60
2022-12-23T05:33:43.621Z,10.60
2022-12-23T05:36:15.366Z,10.60
2022-12-23T05:38:47.020Z,10.60
2022-12-23T05:41:18.691Z,10.60
2022-12-23T05:43:50.341Z,10.50
2022-12-23T05:46:26.545Z,10.50
2022-12-23T05:48:59.727Z,10.50
2022-12-23T05:51:31.394Z,10.50
2022-12-23T05:54:03.070Z,10.50
2022-12-23T05:56:34.772Z,10.50
2022-12-23T05:59:06.412Z,10.40
2022-12-23T06:01:38.111Z,10.40
2022-12-23T06:04:11.255Z,10.40
2022-12-23T06:06:43.020Z,10.40
2022-12-23T06:09:14.677Z,10.50
2022-12-23T06:11:46.347Z,10.60
2022-12-23T06:14:18.004Z,10.60
2022-12-23T06:16:49.723Z,10.60
2022-12-23T06:19:22.816Z,10.60
2022-12-23T06:21:54.476Z,10.70
2022-12-23T06:24:26.148Z,10.70
2022-12-23T06:26:57.834Z,10.60
2022-12-23T06:29:29.499Z,10.60
2022-12-23T06:32:01.319Z,10.60
2022-12-23T06:34:34.412Z,10.60
2022-12-23T06:37:06.083Z,10.60
2022-12-23T06:39:37.804Z,10.60
2022-12-23T06:42:09.496Z,10.60
2022-12-23T06:44:41.208Z,10.60
2022-12-23T06:47:12.881Z,10.50
2022-12-23T06:49:45.895Z,10.50
2022-12-23T06:52:17.570Z,10.50
2022-12-23T06:54:49.226Z,10.50
2022-12-23T06:57:20.937Z,10.50
2022-12-23T06:59:52.600Z,10.50
2022-12-23T07:02:24.341Z,10.50
2022-12-23T07:04:57.431Z,10.40
2022-12-23T07:07:29.110Z,10.50
2022-12-23T07:10:00.798Z,10.40
2022-12-23T07:12:32.513Z,10.40
2022-12-23T07:15:04.894Z,10.40
2022-12-23T07:17:36.579Z,10.30
2022-12-23T07:20:10.953Z,10.30
2022-12-23T07:22:42.672Z,10.20
2022-12-23T07:25:14.450Z,10.20
2022-12-23T07:27:46.147Z,10.20
2022-12-23T07:30:17.953Z,10.20
2022-12-23T07:32:49.651Z,10.20
2022-12-23T07:35:22.676Z,10.20
2022-12-23T07:37:54.752Z,10.20
2022-12-23T07:40:26.509Z,10.20
2022-12-23T07:42:58.574Z,10.20
2022-12-23T07:45:30.410Z,10.20
2022-12-23T07:48:02.168Z,10.20
2022-12-23T07:50:35.195Z,10.20
2022-12-23T07:53:06.888Z,10.20
2022-12-23T07:55:38.556Z,10.20
2022-12-23T07:58:10.393Z,10.20
2022-12-23T08:00:42.049Z,10.20
2022-12-23T08:03:13.871Z,10.20
2022-12-23T08:05:47.013Z,10.20
2022-12-23T08:08:18.698Z,10.20
2022-12-23T08:10:50.353Z,10.20
2022-12-23T08:13:22.031Z,10.20
2022-12-23T08:15:57.080Z,10.30
2022-12-23T08:18:29.822Z,10.30
2022-12-23T08:21:04.164Z,10.30
2022-12-23T08:23:35.870Z,10.40
2022-12-23T08:26:08.485Z,10.40
2022-12-23T08:28:41.001Z,10.40
2022-12-23T08:31:13.705Z,10.40
2022-12-23T08:33:46.313Z,10.40
2022-12-23T08:36:23.131Z,10.40
2022-12-23T08:38:55.690Z,10.40
2022-12-23T08:41:28.248Z,10.40
2022-12-23T08:43:59.958Z,10.40
2022-12-23T08:46:31.787Z,10.40
2022-12-23T08:49:03.556Z,10.40
2022-12-23T08:51:36.772Z,10.40
2022-12-23T08:54:08.507Z,10.40
2022-12-23T08:56:40.859Z,10.40
2022-12-23T08:59:18.223Z,10.40
2022-12-23T09:01:51.124Z,10.50
2022-12-23T09:04:22.877Z,10.50
2022-12-23T09:06:55.908Z,10.50
2022-12-23T09:09:27.741Z,10.60
2022-12-23T09:11:59.425Z,10.60
2022-12-23T09:14:31.133Z,10.60
2022-12-23T09:17:02.770Z,10.60
2022-12-23T09:19:34.438Z,10.60
2022-12-23T09:22:07.455Z,10.60
2022-12-23T09:24:39.163Z,10.60
2022-12-23T09:27:10.821Z,10.60
2022-12-23T09:29:42.481Z,10.60
2022-12-23T09:32:14.162Z,10.60
2022-12-23T09:34:45.923Z,10.60
2022-12-23T09:37:18.925Z,10.60
2022-12-23T09:39:50.728Z,10.60
2022-12-23T09:42:28.316Z,10.60
2022-12-23T09:45:11.188Z,10.60
2022-12-23T09:47:42.891Z,10.60
2022-12-23T09:50:20.649Z,10.60
2022-12-23T09:52:59.013Z,10.50
2022-12-23T09:55:39.252Z,10.70
2022-12-23T09:58:16.351Z,10.60
2022-12-23T10:00:53.754Z,10.60
2022-12-23T10:03:28.023Z,10.60
2022-12-23T10:06:02.293Z,10.60
2022-12-23T10:08:36.597Z,10.60
2022-12-23T10:11:11.966Z,10.60
2022-12-23T10:13:45.311Z,10.70
2022-12-23T10:16:17.973Z,10.70
2022-12-23T10:18:52.523Z,10.70
2022-12-23T10:21:26.645Z,10.70
2022-12-23T10:24:01.027Z,10.70
2022-12-23T10:26:34.783Z,10.70
2022-12-23T10:29:19.040Z,10.70
2022-12-23T10:32:00.454Z,10.80
2022-12-23T10:34:38.702Z,10.80
2022-12-23T10:37:14.315Z,10.90
2022-12-23T10:39:51.338Z,10.90
2022-12-23T10:42:26.333Z,10.90
2022-12-23T10:45:07.707Z,10.90
2022-12-23T10:47:48.074Z,10.90
2022-12-23T10:50:34.332Z,10.90
2022-12-23T10:53:09.146Z,10.90
2022-12-23T10:55:42.194Z,10.80
2022-12-23T10:58:14.865Z,10.90
2022-12-23T11:00:47.976Z,10.90
2022-12-23T11:03:21.338Z,10.90
2022-12-23T11:05:53.155Z,10.90
2022-12-23T11:08:25.782Z,11.00
2022-12-23T11:10:58.960Z,11.00
2022-12-23T11:13:35.592Z,11.00
2022-12-23T11:16:18.621Z,10.90
2022-12-23T11:18:58.992Z,11.00
2022-12-23T11:21:31.315Z,11.00
2022-12-23T11:24:08.180Z,11.00
2022-12-23T11:26:41.217Z,11.10
2022-12-23T11:29:21.703Z,11.10
2022-12-23T11:31:53.418Z,11.10
2022-12-23T11:34:25.815Z,11.10
2022-12-23T11:37:01.816Z,11.10
2022-12-23T11:39:37.315Z,11.00
2022-12-23T11:42:15.021Z,10.90
2022-12-23T11:44:47.591Z,10.90
2022-12-23T11:47:24.635Z,10.80
2022-12-23T11:49:56.915Z,10.70
2022-12-23T11:52:28.838Z,10.70
2022-12-23T11:55:01.315Z,10.60
2022-12-23T11:57:38.054Z,10.60
2022-12-23T12:00:18.345Z,10.50
2022-12-23T12:02:51.259Z,10.50
2022-12-23T12:05:25.203Z,10.50
2022-12-23T12:07:58.817Z,10.50
2022-12-23T12:10:31.670Z,10.40
2022-12-23T12:13:06.620Z,10.40
2022-12-23T12:15:42.114Z,10.40
2022-12-23T12:18:15.023Z,10.30
2022-12-23T12:20:48.429Z,10.30
2022-12-23T12:23:22.377Z,10.20
2022-12-23T12:25:55.633Z,10.20
2022-12-23T12:28:32.426Z,10.20
2022-12-23T12:31:11.016Z,10.10
2022-12-23T12:33:46.570Z,10.10
2022-12-23T12:36:22.797Z,10.10
2022-12-23T12:38:54.510Z,10.10
2022-12-23T12:41:28.925Z,10.10
2022-12-23T12:44:24.001Z,10.00
2022-12-23T12:46:57.162Z,10.00
2022-12-23T12:49:31.204Z,9.90
2022-12-23T12:52:06.181Z,9.90
2022-12-23T12:54:39.892Z,9.80
2022-12-23T12:57:14.218Z,9.80
2022-12-23T12:59:47.571Z,9.80
2022-12-23T13:02:41.802Z,9.80
2022-12-23T13:05:24.249Z,9.80
2022-12-23T13:08:03.494Z,9.80
2022-12-23T13:10:39.226Z,9.80
2022-12-23T13:13:20.249Z,9.80
2022-12-23T13:15:54.646Z,9.70
2022-12-23T13:18:31.234Z,9.70
2022-12-23T13:21:05.659Z,9.70
2022-12-23T13:23:43.980Z,9.70
2022-12-23T13:26:26.739Z,9.70
2022-12-23T13:29:04.456Z,9.70
2022-12-23T13:31:44.117Z,9.70
2022-12-23T13:34:23.587Z,9.70
2022-12-23T13:36:58.778Z,9.70
2022-12-23T13:39:36.309Z,9.70
2022-12-23T13:42:09.770Z,9.70
2022-12-23T13:44:41.692Z,9.70
2022-12-23T13:47:18.264Z,9.70
2022-12-23T13:49:54.954Z,9.70
2022-12-23T13:52:33.664Z,9.70
2022-12-23T13:55:11.145Z,9.70
2022-12-23T13:57:47.404Z,9.70
2022-12-23T14:00:25.227Z,9.80
2022-12-23T14:03:20.053Z,9.70
2022-12-23T14:05:52.319Z,9.80
2022-12-23T14:08:27.002Z,9.80
2022-12-23T14:10:59.397Z,9.80
2022-12-23T14:13:33.979Z,9.80
2022-12-23T14:16:35.914Z,9.80
2022-12-23T14:19:45.507Z,9.80
2022-12-23T14:22:39.264Z,9.90
2022-12-23T14:25:38.262Z,9.90
2022-12-23T14:28:17.130Z,9.90
2022-12-23T14:30:48.845Z,9.90
2022-12-23T14:33:23.167Z,9.90
2022-12-23T14:35:57.322Z,9.90
2022-12-23T14:38:30.589Z,10.00
2022-12-23T14:41:38.401Z,10.00
2022-12-23T14:44:18.639Z,10.00
2022-12-23T14:46:54.088Z,10.00
2022-12-23T14:49:46.860Z,10.00
2022-12-23T14:52:46.056Z,10.00
2022-12-23T14:55:39.580Z,10.10
2022-12-23T14:58:31.817Z,10.10
2022-12-23T15:01:07.996Z,10.20
2022-12-23T15:03:45.228Z,10.20
2022-12-23T15:06:18.982Z,10.20
2022-12-23T15:08:52.384Z,10.20
2022-12-23T15:11:26.057Z,10.70
2022-12-23T15:13:59.481Z,10.30
2022-12-23T15:16:32.824Z,10.30
2022-12-23T15:19:16.348Z,10.40
2022-12-23T15:21:54.475Z,10.40
2022-12-23T15:24:33.379Z,10.40
2022-12-23T15:27:26.446Z,10.40
2022-12-23T15:29:56.846Z,10.50
2022-12-23T15:32:28.499Z,10.50
2022-12-23T15:35:02.315Z,10.50
2022-12-23T15:37:34.027Z,10.50
2022-12-23T15:40:21.676Z,10.60
2022-12-23T15:42:53.416Z,10.60
2022-12-23T15:45:34.229Z,10.60
2022-12-23T15:48:06.968Z,10.60
2022-12-23T15:50:39.099Z,10.60
2022-12-23T15:53:12.669Z,10.70
2022-12-23T15:55:46.550Z,10.60
2022-12-23T15:58:19.653Z,10.70
2022-12-23T16:00:52.580Z,10.70
2022-12-23T16:03:26.922Z,10.70
2022-12-23T16:06:09.938Z,10.90
2022-12-23T16:08:41.664Z,10.70
2022-12-23T16:11:15.655Z,10.80
2022-12-23T16:13:58.503Z,10.80
2022-12-23T16:16:37.267Z,10.90
2022-12-23T16:19:36.285Z,11.00
2022-12-23T16:22:18.642Z,11.10
2022-12-23T16:24:51.839Z,11.30
2022-12-23T16:27:32.264Z,11.50
2022-12-23T16:30:09.000Z,11.70
2022-12-23T16:32:44.423Z,11.80
2022-12-23T16:35:36.444Z,11.90
2022-12-23T16:38:13.845Z,12.00
2022-12-23T16:40:46.296Z,12.10
2022-12-23T16:43:19.633Z,12.00
2022-12-23T16:45:52.244Z,12.20
2022-12-23T16:48:27.728Z,12.20
2022-12-23T16:50:59.643Z,12.10
2022-12-23T16:53:31.619Z,12.10
2022-12-23T16:56:03.559Z,12.30
2022-12-23T16:58:36.557Z,12.10
2022-12-23T17:01:09.294Z,12.10
2022-12-23T17:03:42.272Z,12.00
2022-12-23T17:06:14.164Z,12.00
2022-12-23T17:08:45.941Z,12.00
2022-12-23T17:11:19.164Z,12.00
2022-12-23T17:13:55.303Z,12.00
2022-12-23T17:16:33.457Z,12.00
2022-12-23T17:19:05.488Z,12.10
2022-12-23T17:21:37.284Z,12.20
2022-12-23T17:24:10.846Z,12.20
2022-12-23T17:26:42.568Z,12.00
2022-12-23T17:29:15.598Z,12.10
2022-12-23T17:31:47.353Z,12.10
2022-12-23T17:34:20.151Z,12.00
2022-12-23T17:36:52.727Z,12.00
2022-12-23T17:39:24.710Z,12.00
2022-12-23T17:41:56.380Z,12.00
2022-12-23T17:44:29.377Z,12.00
2022-12-23T17:47:01.042Z,12.00
2022-12-23T17:49:32.671Z,11.90
2022-12-23T17:52:04.601Z,12.00
2022-12-23T17:54:36.262Z,12.00
2022-12-23T17:57:26.208Z,12.00
2022-12-23T17:59:59.220Z,12.00
2022-12-23T18:02:31.885Z,12.00
2022-12-23T18:05:08.704Z,12.00
2022-12-23T18:07:40.371Z,12.00
2022-12-23T18:10:12.817Z,12.00
2022-12-23T18:12:45.093Z,12.00
2022-12-23T18:15:20.663Z,12.00
2022-12-23T18:17:52.594Z,12.00
2022-12-23T18:20:24.402Z,12.00
2022-12-23T18:23:00.387Z,12.00
2022-12-23T18:25:32.068Z,12.00
2022-12-23T18:28:03.929Z,12.00
2022-12-23T18:30:36.966Z,12.00
2022-12-23T18:33:10.204Z,11.90
2022-12-23T18:35:42.587Z,11.80
2022-12-23T18:38:14.318Z,11.80
2022-12-23T18:40:45.993Z,11.70
2022-12-23T18:43:18.477Z,11.70
2022-12-23T18:45:53.644Z,11.70
2022-12-23T18:48:25.866Z,11.70
2022-12-23T18:50:57.532Z,11.70
2022-12-23T18:53:29.372Z,11.70
2022-12-23T18:56:01.068Z,11.70
2022-12-23T18:58:32.740Z,11.70
2022-12-23T19:01:06.028Z,11.70
2022-12-23T19:03:37.708Z,11.80
2022-12-23T19:06:10.005Z,11.90
2022-12-23T19:08:41.817Z,11.90
2022-12-23T19:11:14.352Z,12.00
2022-12-23T19:13:46.131Z,12.00
2022-12-23T19:16:19.997Z,12.00
2022-12-23T19:18:51.759Z,12.00
2022-12-23T19:21:24.530Z,12.00
2022-12-23T19:23:56.270Z,12.00
2022-12-23T19:26:27.942Z,12.00
2022-12-23T19:28:59.865Z,12.00
2022-12-23T19:31:32.906Z,12.00
2022-12-23T19:34:07.015Z,12.00
2022-12-23T19:36:42.989Z,11.90
2022-12-23T19:39:14.714Z,12.00
2022-12-23T19:41:46.369Z,12.00
2022-12-23T19:44:18.063Z,12.10
2022-12-23T19:46:51.132Z,12.10
2022-12-23T19:49:23.000Z,12.10
2022-12-23T19:51:54.664Z,12.10
2022-12-23T19:54:26.324Z,12.10
2022-12-23T19:56:57.976Z,12.10
2022-12-23T19:59:29.648Z,12.10
2022-12-23T20:02:02.693Z,12.20
2022-12-23T20:04:34.400Z,12.20
2022-12-23T20:07:06.069Z,12.20
2022-12-23T20:09:37.869Z,12.30
2022-12-23T20:12:09.563Z,12.30
2022-12-23T20:14:41.239Z,12.30
2022-12-23T20:17:14.260Z,12.30
2022-12-23T20:19:46.593Z,12.20
2022-12-23T20:22:18.318Z,12.20
2022-12-23T20:24:50.018Z,12.20
2022-12-23T20:27:27.708Z,12.20
2022-12-23T20:29:59.941Z,12.20
2022-12-23T20:32:32.942Z,12.20
2022-12-23T20:35:05.405Z,12.20
2022-12-23T20:37:37.067Z,12.20
2022-12-23T20:40:09.966Z,12.20
2022-12-23T20:42:41.636Z,12.20
2022-12-23T20:45:13.337Z,12.20
2022-12-23T20:47:46.350Z,12.30
2022-12-23T20:50:18.105Z,12.30
2022-12-23T20:52:49.750Z,12.30
2022-12-23T20:55:21.458Z,12.30
2022-12-23T20:57:53.108Z,12.30
2022-12-23T21:00:24.800Z,12.30
2022-12-23T21:02:58.041Z,12.30
2022-12-23T21:05:29.767Z,12.30
2022-12-23T21:08:01.417Z,11.40
2022-12-23T21:10:33.080Z,12.60
2022-12-23T21:13:04.800Z,12.30
2022-12-23T21:15:36.483Z,12.30
2022-12-23T21:18:09.483Z,12.30
2022-12-23T21:20:41.145Z,12.40
2022-12-23T21:23:12.826Z,12.40
2022-12-23T21:25:44.506Z,12.40
2022-12-23T21:28:16.176Z,12.40
2022-12-23T21:30:47.861Z,12.40
2022-12-23T21:33:20.868Z,12.40
2022-12-23T21:35:52.547Z,12.40
2022-12-23T21:38:24.202Z,12.40
2022-12-23T21:40:59.676Z,12.40
2022-12-23T21:43:31.391Z,12.40
2022-12-23T21:46:04.437Z,12.40
2022-12-23T21:48:37.664Z,12.40
2022-12-23T21:51:11.625Z,12.40
2022-12-23T21:53:43.593Z,12.40
2022-12-23T21:56:16.411Z,12.40
2022-12-23T21:58:48.071Z,12.30
2022-12-23T22:01:20.279Z,12.30
2022-12-23T22:03:53.632Z,12.20
2022-12-23T22:06:26.402Z,12.20
2022-12-23T22:08:58.089Z,12.30
2022-12-23T22:11:30.938Z,12.20
2022-12-23T22:14:02.845Z,12.20
2022-12-23T22:16:34.974Z,12.00
2022-12-23T22:19:08.294Z,12.20
2022-12-23T22:21:40.072Z,12.20
2022-12-23T22:24:11.849Z,12.10
2022-12-23T22:26:43.507Z,11.70
2022-12-23T22:29:15.200Z,12.20
2022-12-23T22:31:47.633Z,12.20
2022-12-23T22:34:21.566Z,12.20
2022-12-23T22:36:53.246Z,12.20
2022-12-23T22:39:25.123Z,12.20
2022-12-23T22:41:56.779Z,12.20
2022-12-23T22:44:28.531Z,12.20
2022-12-23T22:47:00.332Z,12.20
2022-12-23T22:49:33.359Z,12.20
2022-12-23T22:52:05.201Z,12.20
2022-12-23T22:54:36.887Z,12.20
2022-12-23T22:57:08.554Z,12.20
2022-12-23T22:59:40.232Z,12.20
